Time;durP1;ratioP1;P1;durP2;ratioP2;P2;SDS_P1;SDS_P2;PMS_P1;PMS_P2;Temp;Humidity;BMP_temperature;BMP_pressure;BME280_temperature;BME280_humidity;BME280_pressure;Samples;Min_cycle;Max_cycle;Signal;HPM_P1;HPM_P2
2022/01/02 00:01:46;;;;;;;30.97;9.03;;;;;;;7.40;100.00;98632.44;5078169;27;20047;-60
2022/01/02 00:04:22;;;;;;;31.48;8.65;;;;;;;6.53;100.00;98632.16;5078127;28;20361;-57
2022/01/02 00:06:50;;;;;;;31.05;9.65;;;;;;;6.41;100.00;98624.53;5083310;28;20029;-57
2022/01/02 00:09:33;;;;;;;26.55;7.28;;;;;;;7.08;100.00;98622.66;5080437;28;20031;-60
2022/01/02 00:12:08;;;;;;;;;;;;;;;7.18;100.00;98613.81;5081937;28;20150;-58
2022/01/02 00:14:36;;;;;;;29.65;8.57;;;;;;;7.08;100.00;98607.94;5075082;28;20386;-57
2022/01/02 00:17:04;;;;;;;27.45;8.15;;;;;;;7.37;100.00;98608.28;5079159;28;20510;-57
2022/01/02 00:19:32;;;;;;;30.17;8.00;;;;;;;7.46;100.00;98597.72;5080415;28;20032;-59
2022/01/02 00:22:04;;;;;;;30.88;8.45;;;;;;;7.46;100.00;98588.22;5079310;28;20039;-58
2022/01/02 00:24:31;;;;;;;28.77;7.55;;;;;;;7.80;100.00;98584.94;5079999;28;20103;-58
2022/01/02 00:26:58;;;;;;;30.80;8.52;;;;;;;7.55;100.00;98575.94;5080376;28;20040;-58
2022/01/02 00:29:24;;;;;;;27.02;8.07;;;;;;;7.04;100.00;98575.16;5080845;28;20052;-58
2022/01/02 00:31:51;;;;;;;36.53;9.00;;;;;;;7.29;100.00;98579.88;5082888;28;20552;-58
2022/01/02 00:34:18;;;;;;;27.65;7.40;;;;;;;7.90;100.00;98580.41;5080199;28;20043;-59
2022/01/02 00:36:43;;;;;;;27.20;7.53;;;;;;;7.70;100.00;98570.44;5079136;28;20036;-58
2022/01/02 00:39:09;;;;;;;28.90;8.48;;;;;;;7.07;100.00;98569.88;5096468;27;20031;-58
2022/01/02 00:41:38;;;;;;;28.08;8.65;;;;;;;6.99;100.00;98565.75;5083347;28;20063;-57
2022/01/02 00:44:04;;;;;;;28.15;8.45;;;;;;;7.30;100.00;98581.59;5081045;28;20115;-59
2022/01/02 00:46:32;;;;;;;34.40;9.63;;;;;;;6.74;100.00;98573.91;5077246;27;20128;-57
2022/01/02 00:49:03;;;;;;;26.15;7.95;;;;;;;6.33;100.00;98572.81;5078625;28;20638;-57
2022/01/02 00:51:43;;;;;;;28.83;9.90;;;;;;;5.74;100.00;98571.00;5077045;28;20886;-60
2022/01/02 00:54:16;;;;;;;29.77;9.05;;;;;;;6.22;100.00;98572.13;5078949;28;20085;-60
2022/01/02 00:56:46;;;;;;;31.90;8.02;;;;;;;6.90;100.00;98569.34;5074754;28;20383;-58
2022/01/02 00:59:28;;;;;;;27.92;8.52;;;;;;;6.66;100.00;98570.59;5076342;28;20744;-60
2022/01/02 01:02:02;;;;;;;;;;;;;;;6.18;100.00;98576.50;5075769;28;20044;-59
2022/01/02 01:04:31;;;;;;;27.77;7.57;;;;;;;6.91;100.00;98574.50;5077713;28;20131;-57
2022/01/02 01:07:01;;;;;;;29.63;8.27;;;;;;;7.66;100.00;98572.22;5076254;28;20118;-61
2022/01/02 01:09:29;;;;;;;28.33;7.40;;;;;;;7.86;100.00;98579.63;5080547;28;20039;-59
2022/01/02 01:11:57;;;;;;;26.08;7.70;;;;;;;7.26;100.00;98574.75;5077576;28;20040;-58
2022/01/02 01:14:23;;;;;;;27.60;7.57;;;;;;;7.56;100.00;98575.06;5084317;28;20406;-59
2022/01/02 01:16:48;;;;;;;32.15;8.70;;;;;;;6.94;100.00;98563.22;5095700;27;20580;-59
2022/01/02 01:19:14;;;;;;;26.13;7.95;;;;;;;7.18;100.00;98564.50;5080214;28;20122;-59
2022/01/02 01:21:39;;;;;;;25.20;8.82;;;;;;;6.64;100.00;98565.44;5078376;28;20126;-58
2022/01/02 01:24:05;;;;;;;25.38;7.13;;;;;;;7.24;100.00;98571.31;5079064;27;20024;-59
2022/01/02 01:26:30;;;;;;;26.75;8.50;;;;;;;7.20;100.00;98560.16;5077618;28;20036;-59
2022/01/02 01:28:55;;;;;;;24.17;7.20;;;;;;;6.51;100.00;98558.75;5084772;28;20027;-60
2022/01/02 01:31:21;;;;;;;29.58;8.35;;;;;;;6.90;100.00;98553.78;5078536;28;20096;-58
2022/01/02 01:33:46;;;;;;;26.52;8.57;;;;;;;6.50;100.00;98550.09;5074546;28;20064;-58
2022/01/02 01:36:11;;;;;;;22.75;7.35;;;;;;;6.77;100.00;98550.53;5079625;28;20127;-58
2022/01/02 01:38:37;;;;;;;28.00;7.32;;;;;;;7.04;100.00;98543.13;5074253;28;20766;-58
2022/01/02 01:41:21;;;;;;;27.05;8.63;;;;;;;6.05;100.00;98533.53;5079855;28;20090;-57
2022/01/02 01:44:06;;;;;;;22.23;7.68;;;;;;;7.00;100.00;98536.31;5072148;28;20020;-58
2022/01/02 01:46:32;;;;;;;25.65;8.50;;;;;;;6.27;100.00;98526.28;5081813;28;20036;-59
2022/01/02 01:48:57;;;;;;;27.55;7.15;;;;;;;7.04;100.00;98528.47;5078257;28;20028;-60
2022/01/02 01:51:24;;;;;;;25.92;7.35;;;;;;;6.97;100.00;98526.00;5074936;28;20060;-59
2022/01/02 01:53:50;;;;;;;24.35;6.60;;;;;;;7.69;100.00;98529.78;5074496;28;20028;-60
2022/01/02 01:56:15;;;;;;;30.52;7.80;;;;;;;6.96;100.00;98530.31;5078753;28;20075;-60
2022/01/02 01:58:41;;;;;;;22.42;7.25;;;;;;;6.50;100.00;98515.56;5077932;28;20525;-60
2022/01/02 02:01:06;;;;;;;20.30;6.90;;;;;;;7.33;100.00;98514.06;5073877;28;20113;-59
2022/01/02 02:03:31;;;;;;;29.92;7.28;;;;;;;7.24;100.00;98519.44;5077073;28;20152;-58
2022/01/02 02:05:57;;;;;;;23.63;8.52;;;;;;;5.97;100.00;98521.53;5078073;28;20064;-58
2022/01/02 02:08:26;;;;;;;28.00;8.43;;;;;;;5.76;100.00;98520.06;5076234;28;20131;-59
2022/01/02 02:10:56;;;;;;;25.60;7.25;;;;;;;6.41;100.00;98515.69;5081427;28;20071;-60
2022/01/02 02:13:23;;;;;;;33.35;7.82;;;;;;;7.37;100.00;98525.22;5080360;28;20044;-58
2022/01/02 02:15:51;;;;;;;29.73;8.30;;;;;;;6.50;100.00;98524.19;5075165;28;20042;-60
2022/01/02 02:18:17;;;;;;;32.28;7.70;;;;;;;6.23;100.00;98511.66;5072132;28;20525;-57
2022/01/02 02:20:43;;;;;;;30.75;7.43;;;;;;;6.55;100.00;98518.94;5074859;28;20039;-60
2022/01/02 02:23:12;;;;;;;25.98;6.85;;;;;;;7.10;100.00;98517.97;5073359;28;20083;-59
2022/01/02 02:25:39;;;;;;;25.65;7.15;;;;;;;7.14;100.00;98509.22;5076447;28;20059;-60
2022/01/02 02:28:11;;;;;;;24.48;6.95;;;;;;;6.94;100.00;98501.81;5077516;28;20073;-58
2022/01/02 02:30:40;;;;;;;32.65;8.05;;;;;;;6.68;100.00;98510.06;5078566;28;20119;-58
2022/01/02 02:33:07;;;;;;;24.13;6.45;;;;;;;7.04;100.00;98499.94;5077199;28;20486;-58
2022/01/02 02:35:35;;;;;;;24.95;7.13;;;;;;;7.00;100.00;98497.41;5078158;28;20039;-58
2022/01/02 02:38:02;;;;;;;26.95;7.05;;;;;;;7.07;100.00;98494.66;5077067;28;20021;-59
2022/01/02 02:40:29;;;;;;;24.27;7.22;;;;;;;7.10;100.00;98486.81;5078241;28;20031;-59
2022/01/02 02:51:06;;;;;;;;;;;;;;;7.62;100.00;98478.88;5082635;28;20046;-59
2022/01/02 02:53:37;;;;;;;26.00;7.63;;;;;;;6.78;100.00;98474.44;5078983;28;19924;-60
2022/01/02 02:56:16;;;;;;;21.92;6.70;;;;;;;7.12;100.00;98468.66;5080612;28;20040;-58
2022/01/02 02:58:43;;;;;;;26.50;7.35;;;;;;;6.42;100.00;98470.78;5095809;27;20570;-58
2022/01/02 03:01:11;;;;;;;25.83;6.57;;;;;;;7.16;100.00;98477.22;5080503;28;20055;-59
2022/01/02 03:03:37;;;;;;;28.75;7.82;;;;;;;6.60;100.00;98474.78;5082402;28;20019;-58
2022/01/02 03:06:03;;;;;;;21.83;7.15;;;;;;;6.41;100.00;98471.66;5080729;28;20033;-58
2022/01/02 03:08:28;;;;;;;28.48;7.50;;;;;;;6.97;100.00;98469.78;5077363;28;20084;-58
2022/01/02 03:10:54;;;;;;;29.60;7.28;;;;;;;7.16;100.00;98462.50;5073855;28;20136;-58
2022/01/02 03:13:19;;;;;;;24.95;6.65;;;;;;;7.25;100.00;98461.47;5078808;28;20028;-58
2022/01/02 03:15:44;;;;;;;22.73;6.18;;;;;;;6.86;100.00;98456.19;5078018;28;20100;-58
2022/01/02 03:18:10;;;;;;;24.95;6.85;;;;;;;6.72;100.00;98446.91;5082466;28;20028;-60
2022/01/02 03:20:35;;;;;;;23.85;7.30;;;;;;;6.57;100.00;98454.97;5081650;28;20037;-58
2022/01/02 03:23:00;;;;;;;21.33;6.60;;;;;;;6.80;100.00;98440.72;5097857;27;20029;-57
2022/01/02 03:25:26;;;;;;;28.27;7.13;;;;;;;6.77;100.00;98440.78;5080261;28;20115;-59
2022/01/02 03:27:51;;;;;;;26.10;6.47;;;;;;;7.93;100.00;98441.84;5061853;28;20124;-59
2022/01/02 03:30:17;;;;;;;21.40;5.90;;;;;;;7.31;100.00;98433.63;5082718;28;20028;-58
2022/01/02 03:32:42;;;;;;;20.85;6.15;;;;;;;6.96;100.00;98436.94;5080616;28;20485;-58
2022/01/02 03:35:08;;;;;;;27.65;7.53;;;;;;;6.77;100.00;98433.03;5077213;28;20463;-59
2022/01/02 03:37:34;;;;;;;25.55;6.93;;;;;;;6.42;100.00;98431.91;5079517;28;20462;-57
2022/01/02 03:40:01;;;;;;;32.25;7.82;;;;;;;5.41;100.00;98430.81;5082332;28;20040;-60
2022/01/02 03:42:27;;;;;;;24.23;7.35;;;;;;;5.40;100.00;98430.81;5074500;28;20078;-60
2022/01/02 03:44:52;;;;;;;21.13;5.93;;;;;;;6.25;100.00;98425.28;5084547;28;20537;-58
2022/01/02 03:47:18;;;;;;;22.73;6.72;;;;;;;5.90;100.00;98426.66;5082939;28;20659;-57
2022/01/02 03:49:43;;;;;;;26.90;6.63;;;;;;;6.00;100.00;98423.97;5080228;28;20405;-60
2022/01/02 03:52:09;;;;;;;23.70;6.55;;;;;;;6.54;100.00;98423.91;5082122;28;20039;-57
2022/01/02 03:54:34;;;;;;;26.92;6.68;;;;;;;6.66;100.00;98423.69;5083841;28;20043;-59
2022/01/02 03:57:00;;;;;;;22.27;6.10;;;;;;;7.00;100.00;98425.63;5082793;28;20068;-59
2022/01/02 03:59:25;;;;;;;24.83;6.22;;;;;;;5.78;100.00;98424.25;5078847;28;20133;-58
2022/01/02 04:01:50;;;;;;;30.90;8.10;;;;;;;5.83;100.00;98421.63;5079692;28;20044;-58
2022/01/02 04:04:16;;;;;;;25.98;7.25;;;;;;;6.12;100.00;98426.34;5078857;28;20019;-59
2022/01/02 04:06:42;;;;;;;25.40;6.38;;;;;;;7.67;100.00;98420.75;5075011;28;20037;-57
2022/01/02 04:09:07;;;;;;;25.17;7.18;;;;;;;6.11;100.00;98419.47;5081859;28;20043;-58
2022/01/02 04:11:33;;;;;;;25.90;7.35;;;;;;;5.57;100.00;98413.34;5061238;28;20044;-60
2022/01/02 04:13:58;;;;;;;22.75;6.32;;;;;;;5.60;100.00;98413.28;5081699;28;20846;-58
2022/01/02 04:16:23;;;;;;;27.27;7.45;;;;;;;6.31;100.00;98412.22;5083665;28;20059;-57
2022/01/02 04:18:50;;;;;;;25.00;6.90;;;;;;;6.42;100.00;98404.25;5098451;27;20119;-60
2022/01/02 04:21:15;;;;;;;23.83;7.00;;;;;;;6.01;100.00;98408.41;5082196;28;20039;-62
2022/01/02 04:23:41;;;;;;;23.30;7.38;;;;;;;6.15;100.00;98403.00;5080411;28;20020;-61
2022/01/02 04:26:07;;;;;;;26.30;6.38;;;;;;;6.48;100.00;98403.28;5079176;28;20063;-59
2022/01/02 04:28:32;;;;;;;24.10;6.35;;;;;;;5.91;100.00;98407.66;5076660;28;20035;-60
2022/01/02 04:30:58;;;;;;;24.83;7.10;;;;;;;5.70;100.00;98406.25;5078193;28;20035;-58
2022/01/02 04:33:23;;;;;;;25.63;6.55;;;;;;;5.86;100.00;98401.69;5075508;28;20028;-60
2022/01/02 04:35:48;;;;;;;25.02;6.22;;;;;;;6.30;100.00;98410.50;5076820;28;20039;-57
2022/01/02 04:38:14;;;;;;;27.27;7.18;;;;;;;5.33;100.00;98411.09;5079569;28;20034;-58
2022/01/02 04:40:40;;;;;;;29.23;7.40;;;;;;;4.86;100.00;98395.28;5077927;28;20039;-58
2022/01/02 04:43:06;;;;;;;26.38;6.47;;;;;;;5.71;100.00;98402.78;5079843;28;20508;-58
2022/01/02 04:45:31;;;;;;;19.73;6.70;;;;;;;5.20;100.00;98406.09;5080555;27;20032;-57
2022/01/02 04:47:57;;;;;;;26.60;7.50;;;;;;;4.63;100.00;98403.28;5064240;28;20032;-57
2022/01/02 04:50:24;;;;;;;25.52;7.22;;;;;;;4.35;100.00;98401.00;5075258;28;20052;-57
2022/01/02 04:52:49;;;;;;;26.50;7.25;;;;;;;4.47;100.00;98401.75;5076668;28;20101;-58
2022/01/02 04:55:15;;;;;;;25.70;7.03;;;;;;;5.57;100.00;98397.81;5074607;28;20032;-57
2022/01/02 04:57:40;;;;;;;25.45;6.53;;;;;;;5.66;100.00;98391.66;5079927;28;20031;-59
2022/01/02 05:00:07;;;;;;;28.75;7.68;;;;;;;4.74;100.00;98391.13;5081385;28;20040;-57
2022/01/02 05:02:33;;;;;;;23.92;6.57;;;;;;;5.54;100.00;98392.69;5080857;28;20047;-57
2022/01/02 05:04:58;;;;;;;24.40;6.45;;;;;;;6.18;100.00;98390.84;5083734;28;20028;-59
2022/01/02 05:07:23;;;;;;;26.15;6.95;;;;;;;5.83;100.00;98387.97;5078060;28;20568;-59
2022/01/02 05:09:49;;;;;;;24.50;6.45;;;;;;;5.68;100.00;98378.66;5076038;28;20062;-57
2022/01/02 05:12:14;;;;;;;24.10;6.38;;;;;;;6.17;100.00;98377.91;5074205;28;20029;-58
2022/01/02 05:14:40;;;;;;;25.83;7.15;;;;;;;6.00;100.00;98373.03;5096058;27;20034;-57
2022/01/02 05:17:05;;;;;;;21.95;6.13;;;;;;;6.16;100.00;98381.41;5073858;28;20036;-58
2022/01/02 05:19:31;;;;;;;25.85;6.75;;;;;;;5.83;100.00;98373.28;5079594;28;20369;-56
2022/01/02 05:21:57;;;;;;;29.50;8.02;;;;;;;5.65;100.00;98373.56;5079137;28;20040;-59
2022/01/02 05:24:22;;;;;;;26.27;7.22;;;;;;;4.96;100.00;98372.75;5080651;28;20028;-58
2022/01/02 05:26:47;;;;;;;33.13;7.85;;;;;;;5.52;100.00;98371.16;5078754;28;20115;-57
2022/01/02 05:29:13;;;;;;;29.45;7.50;;;;;;;5.42;100.00;98356.63;5080429;28;20100;-58
2022/01/02 05:31:38;;;;;;;22.20;5.60;;;;;;;6.68;100.00;98354.53;5080516;28;20048;-60
2022/01/02 05:34:04;;;;;;;26.15;6.30;;;;;;;7.11;100.00;98364.03;5079002;28;20115;-60
2022/01/02 05:36:29;;;;;;;20.83;5.88;;;;;;;6.62;100.00;98369.34;5079857;28;20077;-58
2022/01/02 05:38:55;;;;;;;25.27;7.43;;;;;;;5.53;100.00;98365.13;5073879;28;20035;-60
2022/01/02 05:41:21;;;;;;;25.02;6.55;;;;;;;5.72;100.00;98362.25;5078113;28;20032;-59
2022/01/02 05:43:46;;;;;;;18.02;5.30;;;;;;;7.13;100.00;98356.19;5076223;28;20251;-56
2022/01/02 05:46:11;;;;;;;23.92;7.18;;;;;;;6.37;100.00;98359.44;5076778;28;20043;-57
2022/01/02 05:48:37;;;;;;;25.83;6.68;;;;;;;6.22;100.00;98345.03;5060796;28;20028;-58
2022/01/02 05:51:02;;;;;;;22.80;6.15;;;;;;;5.72;100.00;98347.56;5092394;27;20035;-58
2022/01/02 05:53:30;;;;;;;22.05;6.22;;;;;;;4.58;100.00;98345.69;5077220;28;20031;-57
2022/01/02 05:55:55;;;;;;;24.95;6.65;;;;;;;5.53;100.00;98344.41;5079863;28;20124;-58
2022/01/02 05:58:21;;;;;;;30.40;8.20;;;;;;;4.72;100.00;98343.75;5092446;27;20115;-57
2022/01/02 06:00:46;;;;;;;24.20;7.05;;;;;;;5.01;100.00;98338.22;5079002;28;20035;-58
2022/01/02 06:03:11;;;;;;;32.75;7.07;;;;;;;6.42;100.00;98328.28;5077424;28;20035;-58
2022/01/02 06:05:37;;;;;;;21.30;6.68;;;;;;;5.42;100.00;98335.94;5079949;28;20036;-57
2022/01/02 06:08:03;;;;;;;25.60;6.88;;;;;;;5.83;100.00;98334.44;5074771;28;20043;-57
2022/01/02 06:10:28;;;;;;;24.08;6.57;;;;;;;4.95;100.00;98340.06;5076369;28;20103;-57
2022/01/02 06:12:53;;;;;;;29.77;7.70;;;;;;;4.90;100.00;98334.09;5079691;28;20140;-59
2022/01/02 06:15:19;;;;;;;25.70;6.78;;;;;;;4.90;100.00;98327.19;5081146;28;20024;-57
2022/01/02 06:17:44;;;;;;;29.48;7.70;;;;;;;5.36;100.00;98315.34;5081724;28;20023;-57
2022/01/02 06:20:09;;;;;;;18.50;5.63;;;;;;;5.59;100.00;98315.00;5078855;28;20035;-57
2022/01/02 06:22:35;;;;;;;25.15;6.28;;;;;;;6.11;100.00;98313.28;5075689;28;20501;-58
2022/01/02 06:25:00;;;;;;;28.15;7.65;;;;;;;5.01;100.00;98304.63;5076887;28;20389;-57
2022/01/02 06:27:25;;;;;;;24.70;6.30;;;;;;;6.29;100.00;98306.91;5073451;28;20043;-58
2022/01/02 06:29:51;;;;;;;27.52;7.63;;;;;;;5.32;100.00;98300.75;5077782;28;20023;-58
2022/01/02 06:32:16;;;;;;;31.40;7.57;;;;;;;5.34;100.00;98301.56;5071572;28;20485;-57
2022/01/02 06:34:44;;;;;;;25.48;7.15;;;;;;;5.62;100.00;98306.31;5058578;28;20064;-59
2022/01/02 06:37:09;;;;;;;22.48;6.68;;;;;;;5.62;100.00;98290.78;5077341;28;20036;-57
2022/01/02 06:39:35;;;;;;;26.15;6.57;;;;;;;6.43;100.00;98288.50;5081123;28;20030;-57
2022/01/02 06:42:00;;;;;;;29.52;7.07;;;;;;;5.81;100.00;98284.44;5079855;28;20507;-58
2022/01/02 06:44:25;;;;;;;25.42;7.32;;;;;;;4.72;100.00;98286.91;5077971;28;20051;-57
2022/01/02 06:46:51;;;;;;;36.38;8.20;;;;;;;5.06;100.00;98277.88;5078970;28;20141;-57
2022/01/02 06:49:16;;;;;;;23.80;6.70;;;;;;;5.26;100.00;98283.59;5074031;28;20039;-57
2022/01/02 06:51:41;;;;;;;27.35;6.57;;;;;;;5.97;100.00;98279.84;5076666;28;20516;-58
2022/01/02 06:54:06;;;;;;;23.45;7.25;;;;;;;5.67;100.00;98274.31;5074838;28;20521;-60
2022/01/02 06:56:32;;;;;;;27.17;7.22;;;;;;;5.43;100.00;98275.56;5079917;28;20032;-59
2022/01/02 06:58:57;;;;;;;28.08;7.32;;;;;;;5.37;100.00;98273.94;5078512;28;20130;-57
2022/01/02 07:01:22;;;;;;;30.48;7.80;;;;;;;5.58;100.00;98270.13;5079146;28;20453;-58
2022/01/02 07:03:48;;;;;;;26.00;7.15;;;;;;;5.69;100.00;98266.53;5077960;28;20028;-59
2022/01/02 07:06:14;;;;;;;30.15;6.90;;;;;;;5.51;100.00;98268.53;5072063;28;20123;-58
2022/01/02 07:08:39;;;;;;;26.23;7.13;;;;;;;5.79;100.00;98257.72;5091243;28;20127;-57
2022/01/02 07:11:07;;;;;;;27.13;8.07;;;;;;;5.65;100.00;98259.69;5080191;28;20032;-57
2022/01/02 07:13:32;;;;;;;27.85;6.93;;;;;;;5.85;100.00;98257.59;5080093;28;20560;-58
2022/01/02 07:15:58;;;;;;;24.35;6.47;;;;;;;6.29;100.00;98252.53;5079253;28;20043;-56
2022/01/02 07:18:23;;;;;;;27.60;7.75;;;;;;;6.23;100.00;98256.09;5072547;28;20028;-59
2022/01/02 07:20:48;;;;;;;25.60;6.90;;;;;;;4.55;100.00;98247.53;5073132;28;20044;-56
2022/01/02 07:23:14;;;;;;;33.90;8.25;;;;;;;5.77;100.00;98259.47;5073088;28;20059;-58
2022/01/02 07:25:39;;;;;;;22.90;6.57;;;;;;;4.66;100.00;98266.31;5075527;28;20075;-58
2022/01/02 07:28:04;;;;;;;22.35;6.38;;;;;;;5.30;100.00;98258.53;5075405;28;20034;-57
2022/01/02 07:30:30;;;;;;;24.38;6.70;;;;;;;6.03;100.00;98260.75;5078373;28;20040;-57
2022/01/02 07:33:02;;;;;;;27.00;6.85;;;;;;;5.59;100.00;98271.00;5078525;28;20024;-57
2022/01/02 07:35:30;;;;;;;27.10;7.28;;;;;;;6.01;100.00;98268.59;5074770;28;20043;-57
2022/01/02 07:37:57;;;;;;;21.75;6.22;;;;;;;6.89;100.00;98279.78;5096651;27;20031;-59
2022/01/02 07:40:24;;;;;;;28.80;7.47;;;;;;;5.81;100.00;98276.66;5079328;28;20021;-58
2022/01/02 07:42:50;;;;;;;25.02;7.00;;;;;;;5.29;100.00;98274.91;5078897;28;20031;-58
2022/01/02 07:45:15;;;;;;;29.33;7.78;;;;;;;5.43;100.00;98280.75;5081195;28;20024;-58
2022/01/02 07:47:41;;;;;;;27.20;6.65;;;;;;;6.68;100.00;98276.75;5080420;28;20056;-57
2022/01/02 07:50:07;;;;;;;28.05;7.72;;;;;;;6.04;100.00;98273.69;5077585;28;20077;-56
2022/01/02 07:52:32;;;;;;;21.40;6.53;;;;;;;6.34;100.00;98269.69;5082965;28;20350;-59
2022/01/02 07:54:58;;;;;;;26.90;7.82;;;;;;;6.31;100.00;98268.88;5078609;28;20028;-59
2022/01/02 07:57:23;;;;;;;25.15;7.40;;;;;;;5.87;100.00;98281.72;5084579;28;20050;-58
2022/01/02 07:59:48;;;;;;;26.83;7.22;;;;;;;6.13;100.00;98277.84;5079647;28;20035;-58
2022/01/02 08:02:14;;;;;;;21.52;6.03;;;;;;;6.52;100.00;98283.13;5078856;28;20126;-58
2022/01/02 08:04:39;;;;;;;25.88;7.30;;;;;;;6.93;100.00;98281.44;5076175;28;20458;-59
2022/01/02 08:07:04;;;;;;;26.95;7.65;;;;;;;6.59;100.00;98276.94;5080215;28;20034;-57
2022/01/02 08:09:30;;;;;;;26.67;7.65;;;;;;;6.64;100.00;98277.72;5072382;28;20028;-56
2022/01/02 08:11:55;;;;;;;31.60;7.65;;;;;;;6.53;100.00;98277.94;5078735;28;20036;-58
2022/01/02 08:14:21;;;;;;;29.85;8.50;;;;;;;7.09;100.00;98264.63;5079530;28;20519;-58
2022/01/02 08:16:47;;;;;;;30.50;7.68;;;;;;;7.41;100.00;98252.66;5078924;28;20040;-60
2022/01/02 08:19:13;;;;;;;26.33;7.30;;;;;;;7.19;100.00;98269.63;5077809;28;20024;-58
2022/01/02 08:21:39;;;;;;;23.00;6.25;;;;;;;7.24;100.00;98275.53;5077821;28;20036;-59
2022/01/02 08:24:05;;;;;;;23.10;6.63;;;;;;;7.51;100.00;98274.88;5078516;28;20041;-59
2022/01/02 08:26:30;;;;;;;28.42;8.52;;;;;;;8.00;100.00;98271.97;5078243;28;20619;-58
2022/01/02 08:29:00;;;;;;;25.83;7.63;;;;;;;8.01;100.00;98273.66;5075372;28;20446;-56
2022/01/02 08:31:25;;;;;;;20.80;6.72;;;;;;;8.25;100.00;98278.22;5075442;28;20115;-57
2022/01/02 08:33:51;;;;;;;25.10;8.45;;;;;;;6.90;100.00;98279.75;5076252;28;20020;-56
2022/01/02 08:36:16;;;;;;;27.77;8.48;;;;;;;7.29;100.00;98286.66;5083142;28;20055;-58
2022/01/02 08:38:42;;;;;;;23.02;7.10;;;;;;;8.05;100.00;98293.44;5078691;28;20055;-58
2022/01/02 08:41:07;;;;;;;23.38;6.63;;;;;;;7.52;100.00;98276.59;5078987;28;20397;-57
2022/01/02 08:43:34;;;;;;;21.40;6.78;;;;;;;7.75;100.00;98266.53;5078688;28;20111;-58
2022/01/02 08:45:59;;;;;;;21.77;6.93;;;;;;;7.99;100.00;98255.50;5080186;28;20167;-61
2022/01/02 08:48:25;;;;;;;21.67;6.30;;;;;;;8.64;100.00;98256.38;5073302;28;20024;-58
2022/01/02 08:50:50;;;;;;;24.75;8.05;;;;;;;7.11;100.00;98260.28;5082129;28;20429;-58
2022/01/02 08:53:15;;;;;;;35.85;9.20;;;;;;;7.01;100.00;98253.56;5079020;28;20035;-60
2022/01/02 08:55:41;;;;;;;26.05;8.30;;;;;;;7.28;100.00;98248.66;5079416;28;20061;-59
2022/01/02 08:58:08;;;;;;;27.92;7.63;;;;;;;8.21;100.00;98254.94;5075864;28;20016;-61
2022/01/02 09:00:34;;;;;;;25.00;8.02;;;;;;;7.90;100.00;98256.63;5077653;28;20766;-59
2022/01/02 09:02:59;;;;;;;24.73;7.80;;;;;;;6.66;100.00;98252.59;5077777;28;20497;-60
2022/01/02 09:05:26;;;;;;;24.88;6.90;;;;;;;7.29;100.00;98256.38;5080494;28;20032;-60
2022/01/02 09:07:52;;;;;;;25.92;7.28;;;;;;;8.05;100.00;98259.69;5082199;28;20406;-59
2022/01/02 09:10:18;;;;;;;24.92;6.72;;;;;;;8.53;100.00;98245.41;5075175;28;20023;-59
2022/01/02 09:12:44;;;;;;;21.27;6.78;;;;;;;8.19;100.00;98252.38;5076455;28;20383;-58
2022/01/02 09:15:10;;;;;;;24.83;7.07;;;;;;;7.94;100.00;98246.13;5076475;28;20696;-59
2022/01/02 09:17:35;;;;;;;23.60;6.72;;;;;;;8.31;100.00;98238.19;5080574;28;20422;-60
2022/01/02 09:20:01;;;;;;;22.23;6.95;;;;;;;7.81;100.00;98233.47;5078467;28;20455;-60
2022/01/02 09:22:26;;;;;;;30.23;8.25;;;;;;;7.88;100.00;98227.25;5079508;28;20040;-59
2022/01/02 09:24:53;;;;;;;24.15;7.57;;;;;;;8.52;100.00;98217.72;5080834;28;20329;-60
2022/01/02 09:27:18;;;;;;;20.77;6.47;;;;;;;8.55;100.00;98217.63;5080709;28;20039;-58
2022/01/02 09:29:43;;;;;;;21.63;6.60;;;;;;;9.42;100.00;98233.13;5078179;28;20019;-59
2022/01/02 09:32:09;;;;;;;20.38;6.65;;;;;;;8.71;100.00;98218.00;5076881;28;20070;-58
2022/01/02 09:34:34;;;;;;;25.58;7.65;;;;;;;8.82;100.00;98205.53;5076211;28;20036;-57
2022/01/02 09:37:01;;;;;;;24.77;8.05;;;;;;;8.51;100.00;98208.19;5076238;28;20037;-59
2022/01/02 09:39:26;;;;;;;19.13;6.55;;;;;;;9.16;100.00;98199.28;5081656;28;20395;-60
2022/01/02 09:41:53;;;;;;;27.05;8.57;;;;;;;8.90;100.00;98207.91;5080086;28;20061;-55
2022/01/02 09:44:18;;;;;;;25.17;7.97;;;;;;;8.36;100.00;98206.88;5078408;28;20447;-56
2022/01/02 09:46:45;;;;;;;28.55;8.15;;;;;;;7.98;100.00;98214.84;5077183;28;20691;-57
2022/01/02 09:49:10;;;;;;;25.98;8.10;;;;;;;8.25;100.00;98213.25;5073235;28;20576;-58
2022/01/02 09:51:36;;;;;;;26.05;8.30;;;;;;;8.36;100.00;98212.06;5078748;28;20116;-57
2022/01/02 09:54:01;;;;;;;23.42;7.80;;;;;;;8.28;100.00;98220.09;5080962;28;20669;-61
2022/01/02 09:56:27;;;;;;;20.65;6.97;;;;;;;9.22;100.00;98204.28;5076777;28;20036;-60
2022/01/02 09:58:52;;;;;;;21.65;7.95;;;;;;;9.16;100.00;98204.50;5074491;28;20044;-58
2022/01/02 10:01:20;;;;;;;24.75;7.45;;;;;;;9.91;100.00;98198.53;5080721;28;20047;-60
2022/01/02 10:03:50;;;;;;;23.73;7.43;;;;;;;9.92;100.00;98200.22;5076989;28;20027;-58
2022/01/02 10:06:16;;;;;;;28.40;8.35;;;;;;;8.96;100.00;98203.34;5077525;28;20040;-59
2022/01/02 10:08:43;;;;;;;21.85;7.15;;;;;;;10.11;100.00;98203.88;5078101;28;20056;-59
2022/01/02 10:11:12;;;;;;;21.80;7.30;;;;;;;10.11;100.00;98201.28;5075873;28;20032;-59
2022/01/02 10:13:40;;;;;;;25.02;7.55;;;;;;;10.25;100.00;98195.53;5075018;28;20032;-61
2022/01/02 10:16:34;;;;;;;22.58;7.10;;;;;;;10.63;100.00;98188.09;5076491;28;20589;-58
2022/01/02 10:19:16;;;;;;;19.40;6.05;;;;;;;10.81;100.00;98191.75;5097329;27;20111;-60
2022/01/02 10:21:41;;;;;;;22.95;6.25;;;;;;;11.67;100.00;98177.81;5076227;28;20030;-61
2022/01/02 10:24:25;;;;;;;22.23;7.72;;;;;;;9.76;100.00;98185.13;5079192;28;20652;-59
2022/01/02 10:27:15;;;;;;;30.88;8.85;;;;;;;10.29;100.00;98183.25;5075925;28;20520;-58
2022/01/02 10:29:51;;;;;;;23.08;8.10;;;;;;;10.28;100.00;98189.38;5071923;28;20488;-61
2022/01/02 10:32:29;;;;;;;23.30;8.50;;;;;;;10.34;100.00;98181.34;5077348;28;20556;-59
2022/01/02 10:35:12;;;;;;;20.90;7.38;;;;;;;10.72;100.00;98182.50;5075526;28;20038;-61
2022/01/02 10:37:41;;;;;;;25.45;8.70;;;;;;;10.63;100.00;98192.47;5078784;28;20040;-59
2022/01/02 10:40:29;;;;;;;28.63;8.68;;;;;;;10.94;100.00;98187.75;5075808;28;20493;-56
2022/01/02 10:42:56;;;;;;;26.55;8.95;;;;;;;10.96;100.00;98178.09;5064430;28;20040;-59
2022/01/02 10:45:52;;;;;;;28.13;7.95;;;;;;;11.67;100.00;98175.19;5074737;28;20397;-59
2022/01/02 10:48:38;;;;;;;22.15;8.27;;;;;;;11.22;100.00;98181.41;5073098;28;20609;-59
2022/01/02 10:51:16;;;;;;;23.55;8.60;;;;;;;10.87;100.00;98178.47;5079148;28;20097;-59
2022/01/02 10:53:54;;;;;;;23.67;9.13;;;;;;;10.88;100.00;98167.13;5075597;28;20049;-59
2022/01/02 10:56:24;;;;;;;20.23;7.78;;;;;;;11.16;100.00;98155.56;5075631;28;20042;-61
2022/01/02 10:58:50;;;;;;;23.35;8.23;;;;;;;11.65;100.00;98150.91;5074437;28;20043;-58
2022/01/02 11:01:15;;;;;;;33.38;10.18;;;;;;;11.44;100.00;98159.66;5071456;28;20063;-55
2022/01/02 11:03:45;;;;;;;32.17;9.68;;;;;;;11.22;100.00;98170.97;5072650;28;20037;-57
2022/01/02 11:06:13;;;;;;;29.25;8.07;;;;;;;11.75;100.00;98162.63;5091504;28;20043;-56
2022/01/02 11:08:44;;;;;;;30.13;9.80;;;;;;;11.61;100.00;98159.75;5070928;28;20084;-58
2022/01/02 11:11:09;;;;;;;26.15;8.77;;;;;;;11.47;100.00;98156.88;5074804;28;20034;-55
2022/01/02 11:13:35;;;;;;;24.13;9.10;;;;;;;10.79;100.00;98157.03;5079111;28;20032;-56
2022/01/02 11:16:03;;;;;;;28.63;9.00;;;;;;;10.99;100.00;98158.84;5078024;28;20050;-57
2022/01/02 11:18:32;;;;;;;23.02;8.57;;;;;;;11.16;100.00;98166.00;5080546;28;20016;-57
2022/01/02 11:20:58;;;;;;;31.88;10.02;;;;;;;11.29;100.00;98148.91;5078678;28;20474;-59
2022/01/02 11:23:29;;;;;;;30.83;10.02;;;;;;;11.02;100.00;98153.50;5079439;28;20747;-57
2022/01/02 11:26:10;;;;;;;30.90;10.15;;;;;;;11.29;100.00;98148.91;5074165;28;20136;-59
2022/01/02 11:28:46;;;;;;;26.63;8.88;;;;;;;11.09;100.00;98148.91;5073746;28;20054;-54
2022/01/02 11:31:27;;;;;;;27.98;9.07;;;;;;;11.35;100.00;98135.59;5075408;28;20035;-56
2022/01/02 11:33:52;;;;;;;25.50;8.90;;;;;;;11.24;100.00;98122.16;5077656;28;20021;-55